createdAt,value
2017-08-09T15:54:54.913Z,25.70
2017-08-09T15:57:52.235Z,25.50
2017-08-09T16:00:50.744Z,25.00
2017-08-09T16:03:48.316Z,25.00
2017-08-09T16:06:45.881Z,25.00
2017-08-09T16:09:43.978Z,24.80
2017-08-09T16:12:41.851Z,24.80
2017-08-09T16:15:39.292Z,24.90
2017-08-09T16:18:37.924Z,24.90
2017-08-09T16:21:36.311Z,24.40
2017-08-09T16:24:35.762Z,24.30
2017-08-09T16:27:33.138Z,24.30
2017-08-09T16:30:30.632Z,24.10
2017-08-09T16:33:29.180Z,23.80
2017-08-09T16:36:26.529Z,23.80
2017-08-09T16:39:23.951Z,23.70
2017-08-09T16:42:21.600Z,23.60
2017-08-09T16:45:18.936Z,23.50
2017-08-09T16:48:16.598Z,23.50
2017-08-09T16:51:13.968Z,23.20
2017-08-09T16:54:12.608Z,23.10
2017-08-09T16:57:10.087Z,23.00
2017-08-09T17:00:07.610Z,23.00
2017-08-09T17:03:04.993Z,23.00
2017-08-09T17:06:02.518Z,23.00
2017-08-09T17:09:00.016Z,23.00
2017-08-09T17:11:57.488Z,22.90
2017-08-09T17:14:54.891Z,22.80
2017-08-09T17:17:52.360Z,22.80
2017-08-09T17:20:49.948Z,22.60
2017-08-09T17:23:47.514Z,22.50
2017-08-09T17:26:44.997Z,22.40
2017-08-09T17:29:42.691Z,22.40
2017-08-09T17:32:41.220Z,22.10
2017-08-09T17:35:38.803Z,22.10
2017-08-09T17:38:36.265Z,22.00
2017-08-09T17:41:33.811Z,21.90
2017-08-09T17:44:31.411Z,21.90
2017-08-09T17:47:28.983Z,21.80
2017-08-09T17:50:26.595Z,21.70
2017-08-09T17:53:24.548Z,21.60
2017-08-09T17:56:22.635Z,21.50
2017-08-09T17:59:20.273Z,21.50
2017-08-09T18:02:17.811Z,21.50
2017-08-09T18:05:16.251Z,21.50
2017-08-09T18:08:13.812Z,21.40
2017-08-09T18:11:11.235Z,21.40
2017-08-09T18:14:08.723Z,21.30
2017-08-09T18:17:06.294Z,21.20
2017-08-09T18:20:03.879Z,21.10
2017-08-09T18:23:01.418Z,21.10
2017-08-09T18:25:58.885Z,21.00
2017-08-09T18:28:56.467Z,21.00
2017-08-09T18:31:53.812Z,20.90
2017-08-09T18:34:51.415Z,20.80
2017-08-09T18:37:48.836Z,20.70
2017-08-09T18:40:46.247Z,20.80
2017-08-09T18:43:43.663Z,20.80
2017-08-09T18:46:41.212Z,20.70
2017-08-09T18:49:38.671Z,20.60
2017-08-09T18:52:36.208Z,20.60
2017-08-09T18:55:33.674Z,20.60
2017-08-09T18:58:31.348Z,20.60
2017-08-09T19:01:28.815Z,20.50
2017-08-09T19:04:26.400Z,20.60
2017-08-09T19:07:23.846Z,20.70
2017-08-09T19:10:22.325Z,20.70
2017-08-09T19:13:19.636Z,20.70
2017-08-09T19:16:17.213Z,20.70
2017-08-09T19:19:14.710Z,20.60
2017-08-09T19:22:12.046Z,20.50
2017-08-09T19:25:12.492Z,20.10
2017-08-09T19:28:10.332Z,19.80
2017-08-09T19:31:07.731Z,19.40
2017-08-09T19:34:05.155Z,19.20
2017-08-09T19:37:02.652Z,19.00
2017-08-09T19:40:00.317Z,18.80
2017-08-09T19:42:57.699Z,18.60
2017-08-09T19:45:56.216Z,18.40
2017-08-09T19:48:53.949Z,18.40
2017-08-09T19:51:52.634Z,18.40
2017-08-09T19:54:51.308Z,18.40
2017-08-09T19:57:48.945Z,18.50
2017-08-09T20:00:46.615Z,18.50
2017-08-09T20:03:44.275Z,18.30
2017-08-09T20:06:41.666Z,18.20
2017-08-09T20:09:39.373Z,18.20
2017-08-09T20:12:36.947Z,18.10
2017-08-09T20:15:34.558Z,18.10
2017-08-09T20:18:33.046Z,18.00
2017-08-09T20:21:31.771Z,17.90
2017-08-09T20:24:29.138Z,17.90
2017-08-09T20:27:26.830Z,17.90
2017-08-09T20:57:28.411Z,17.20
2017-08-09T21:00:26.045Z,17.20
2017-08-09T21:03:23.406Z,17.20
2017-08-09T21:06:22.011Z,17.20
2017-08-09T21:09:21.785Z,17.20
2017-08-09T21:12:20.402Z,17.10
2017-08-09T21:15:19.861Z,17.10
2017-08-09T21:18:17.363Z,17.10
2017-08-09T21:21:15.210Z,17.10
2017-08-09T21:24:12.675Z,17.10
2017-08-09T21:27:11.324Z,17.00
2017-08-09T21:30:10.943Z,17.00
